createdAt,value
2018-08-10T00:02:01.491Z,16.55
2018-08-10T00:04:31.866Z,16.54
2018-08-10T00:07:02.901Z,16.41
2018-08-10T00:09:31.929Z,16.36
2018-08-10T00:12:00.707Z,16.35
2018-08-10T00:14:29.958Z,16.25
2018-08-10T00:16:58.877Z,16.27
2018-08-10T00:19:28.092Z,16.33
2018-08-10T00:21:57.228Z,16.32
2018-08-10T00:24:26.161Z,16.35
2018-08-10T00:26:55.179Z,16.36
2018-08-10T00:29:23.999Z,16.28
2018-08-10T00:31:52.770Z,16.43
2018-08-10T00:34:21.599Z,16.40
2018-08-10T00:36:50.490Z,16.34
2018-08-10T00:39:19.443Z,16.39
2018-08-10T00:41:48.310Z,16.30
2018-08-10T00:44:17.238Z,16.32
2018-08-10T00:46:46.202Z,16.26
2018-08-10T00:49:15.160Z,16.21
2018-08-10T00:51:43.945Z,16.10
2018-08-10T00:54:15.153Z,16.19
2018-08-10T00:56:44.080Z,16.16
2018-08-10T00:59:13.094Z,16.08
2018-08-10T01:01:41.908Z,16.11
2018-08-10T01:04:10.690Z,16.05
2018-08-10T01:06:39.557Z,16.06
2018-08-10T01:09:10.883Z,16.06
2018-08-10T01:11:39.655Z,15.97
2018-08-10T01:14:08.908Z,15.96
2018-08-10T01:16:37.913Z,15.94
2018-08-10T01:19:06.709Z,15.99
2018-08-10T01:21:35.614Z,15.95
2018-08-10T01:24:04.368Z,16.03
2018-08-10T01:26:33.216Z,15.99
2018-08-10T01:29:01.985Z,16.01
2018-08-10T01:31:30.714Z,16.01
2018-08-10T01:33:59.439Z,16.08
2018-08-10T01:36:28.153Z,16.05
2018-08-10T01:38:57.041Z,16.09
2018-08-10T01:41:25.841Z,16.12
2018-08-10T01:43:54.729Z,16.10
2018-08-10T01:46:23.510Z,16.09
2018-08-10T01:48:52.202Z,16.17
2018-08-10T01:51:20.949Z,16.08
2018-08-10T01:53:49.645Z,16.11
2018-08-10T01:56:18.367Z,16.13
2018-08-10T01:58:47.025Z,16.22
2018-08-10T02:01:15.719Z,16.17
2018-08-10T02:03:44.528Z,16.15
2018-08-10T02:06:13.354Z,16.06
2018-08-10T02:08:42.114Z,16.12
2018-08-10T02:11:10.852Z,16.09
2018-08-10T02:13:39.645Z,16.12
2018-08-10T02:16:08.849Z,16.07
2018-08-10T02:18:37.514Z,15.88
2018-08-10T02:21:06.264Z,15.66
2018-08-10T02:23:35.106Z,15.55
2018-08-10T02:26:04.083Z,15.42
2018-08-10T02:28:32.857Z,15.25
2018-08-10T02:31:01.608Z,15.24
2018-08-10T02:33:30.408Z,15.20
2018-08-10T02:35:59.253Z,15.09
2018-08-10T02:38:28.034Z,15.16
2018-08-10T02:40:56.813Z,15.08
2018-08-10T02:43:25.486Z,15.12
2018-08-10T02:45:54.301Z,15.10
2018-08-10T02:48:23.034Z,15.18
2018-08-10T02:50:55.481Z,15.11
2018-08-10T02:53:24.290Z,15.20
2018-08-10T02:55:53.105Z,15.08
2018-08-10T02:58:21.838Z,15.19
2018-08-10T03:00:50.560Z,15.13
2018-08-10T03:03:19.335Z,15.16
2018-08-10T03:05:48.176Z,15.18
2018-08-10T03:08:16.822Z,15.23
2018-08-10T03:10:45.809Z,15.27
2018-08-10T03:13:14.634Z,15.30
2018-08-10T03:15:43.354Z,15.36
2018-08-10T03:18:12.182Z,15.25
2018-08-10T03:20:40.957Z,15.16
2018-08-10T03:23:09.715Z,15.14
2018-08-10T03:25:38.510Z,15.09
2018-08-10T03:28:07.286Z,15.01
2018-08-10T03:30:36.072Z,15.00
2018-08-10T03:33:04.933Z,14.88
2018-08-10T03:35:33.652Z,14.81
2018-08-10T03:38:02.327Z,14.82
2018-08-10T03:40:31.177Z,14.74
2018-08-10T03:42:59.928Z,14.68
2018-08-10T03:45:28.800Z,14.71
2018-08-10T03:47:57.567Z,14.65
2018-08-10T03:50:26.343Z,14.66
2018-08-10T03:52:55.082Z,14.70
2018-08-10T03:55:23.832Z,14.62
2018-08-10T03:57:52.472Z,14.59
2018-08-10T04:00:21.274Z,14.52
2018-08-10T04:02:49.954Z,14.57
2018-08-10T04:05:18.617Z,14.42
2018-08-10T04:07:47.421Z,14.38
2018-08-10T04:10:16.129Z,14.38
2018-08-10T04:12:44.932Z,14.31
2018-08-10T04:15:14.521Z,14.28
2018-08-10T04:17:43.543Z,14.25
2018-08-10T04:20:12.350Z,14.23
2018-08-10T04:22:41.252Z,14.23
2018-08-10T04:25:10.155Z,14.14
2018-08-10T04:27:39.061Z,14.15
2018-08-10T04:30:09.241Z,14.25
2018-08-10T04:32:37.981Z,14.18
2018-08-10T04:35:06.897Z,14.21
2018-08-10T04:37:35.776Z,14.23
2018-08-10T04:40:05.612Z,14.21
2018-08-10T04:42:34.412Z,14.21
2018-08-10T04:45:03.761Z,14.19
2018-08-10T04:47:32.662Z,14.26
2018-08-10T04:50:01.528Z,14.20
2018-08-10T04:52:30.338Z,14.20
2018-08-10T04:54:59.158Z,14.21
2018-08-10T04:57:27.997Z,14.21
2018-08-10T04:59:56.759Z,14.22
2018-08-10T05:02:25.493Z,14.22
2018-08-10T05:04:54.349Z,14.35
2018-08-10T05:07:23.081Z,14.33
2018-08-10T05:09:51.992Z,14.33
2018-08-10T05:12:20.781Z,14.37
2018-08-10T05:14:49.638Z,14.33
2018-08-10T05:17:18.512Z,14.34
2018-08-10T05:19:47.377Z,14.39
2018-08-10T05:22:16.206Z,14.46
2018-08-10T05:24:45.102Z,14.47
2018-08-10T05:27:14.043Z,14.51
2018-08-10T05:29:42.925Z,14.56
2018-08-10T05:32:11.794Z,14.54
2018-08-10T05:34:40.565Z,14.58
2018-08-10T05:37:09.509Z,14.65
2018-08-10T05:39:38.359Z,14.73
2018-08-10T05:42:07.278Z,14.72
2018-08-10T05:44:36.052Z,14.82
2018-08-10T05:47:04.939Z,14.89
2018-08-10T05:49:33.790Z,14.96
2018-08-10T05:52:02.689Z,15.03
2018-08-10T05:54:31.533Z,15.16
2018-08-10T05:57:00.341Z,15.23
2018-08-10T05:59:29.210Z,15.30
2018-08-10T06:01:58.038Z,15.38
2018-08-10T06:04:26.841Z,15.41
2018-08-10T06:06:55.905Z,15.42
2018-08-10T06:09:24.678Z,15.52
2018-08-10T06:11:53.529Z,15.61
2018-08-10T06:14:22.370Z,15.62
2018-08-10T06:16:51.258Z,15.68
2018-08-10T06:19:20.197Z,15.75
2018-08-10T06:21:49.045Z,15.96
2018-08-10T06:24:25.290Z,15.96
2018-08-10T06:26:54.266Z,16.04
2018-08-10T06:29:23.108Z,16.11
2018-08-10T06:31:51.870Z,16.14
2018-08-10T06:34:20.790Z,16.17
2018-08-10T06:36:49.559Z,16.22
2018-08-10T06:39:18.477Z,16.29
2018-08-10T06:41:47.281Z,16.40
2018-08-10T06:44:16.086Z,16.46
2018-08-10T06:46:44.894Z,16.51
2018-08-10T06:49:13.645Z,16.53
2018-08-10T06:51:42.544Z,16.54
2018-08-10T06:54:32.074Z,16.62
2018-08-10T06:57:00.888Z,16.81
2018-08-10T06:59:29.741Z,16.92
2018-08-10T07:01:58.712Z,16.97
2018-08-10T07:04:29.576Z,17.05
2018-08-10T07:06:58.381Z,17.12
2018-08-10T07:09:27.276Z,17.29
2018-08-10T07:11:56.137Z,17.56
2018-08-10T07:14:25.410Z,17.71
2018-08-10T07:16:54.415Z,17.90
2018-08-10T07:19:23.391Z,17.94
2018-08-10T07:21:52.330Z,18.17
2018-08-10T07:24:25.695Z,18.22
2018-08-10T07:26:54.853Z,18.38
2018-08-10T07:29:30.684Z,18.57
2018-08-10T07:32:01.707Z,18.73
2018-08-10T07:34:30.849Z,18.73
2018-08-10T07:36:59.719Z,18.91
2018-08-10T07:39:28.557Z,19.11
2018-08-10T07:41:57.394Z,19.13
2018-08-10T07:44:39.806Z,19.05
2018-08-10T07:47:08.657Z,19.01
2018-08-10T07:49:40.737Z,19.01
2018-08-10T07:52:10.278Z,19.12
2018-08-10T07:54:59.945Z,19.28
2018-08-10T07:57:28.857Z,19.26
2018-08-10T07:59:57.949Z,19.19
2018-08-10T08:02:27.893Z,19.31
2018-08-10T08:05:00.570Z,19.49
2018-08-10T08:07:29.622Z,19.77
2018-08-10T08:09:58.605Z,19.84
2018-08-10T08:12:27.776Z,19.90
2018-08-10T08:15:06.189Z,19.76
2018-08-10T08:17:35.203Z,19.71
2018-08-10T08:20:04.782Z,19.76
2018-08-10T08:22:34.792Z,19.59
2018-08-10T08:25:09.217Z,19.45
2018-08-10T08:27:38.969Z,19.27
2018-08-10T08:30:10.357Z,19.40
2018-08-10T08:32:39.351Z,19.64
2018-08-10T08:35:09.189Z,20.12
2018-08-10T08:37:38.966Z,20.49
2018-08-10T08:40:19.129Z,21.12
2018-08-10T08:42:49.021Z,21.51
2018-08-10T08:45:40.899Z,21.76
2018-08-10T08:48:09.731Z,21.79
2018-08-10T08:50:41.556Z,21.95
2018-08-10T08:53:10.964Z,21.88
2018-08-10T08:56:02.310Z,21.84
2018-08-10T08:58:31.942Z,22.03
2018-08-10T09:01:01.508Z,22.02
2018-08-10T09:03:42.473Z,21.90
2018-08-10T09:06:11.367Z,21.60
2018-08-10T09:08:47.087Z,21.70
2018-08-10T09:11:16.739Z,21.71
2018-08-10T09:14:54.158Z,21.76
2018-08-10T09:17:23.037Z,21.33
2018-08-10T09:19:52.370Z,21.39
2018-08-10T09:22:21.510Z,21.32
2018-08-10T09:25:10.637Z,21.44
2018-08-10T09:30:10.189Z,21.00
2018-08-10T09:32:40.850Z,20.92
2018-08-10T09:35:40.074Z,21.36
2018-08-10T09:38:10.394Z,21.95
2018-08-10T09:40:40.769Z,22.25
2018-08-10T09:43:13.238Z,22.60
2018-08-10T09:45:50.192Z,23.03
2018-08-10T09:48:19.197Z,23.24
2018-08-10T09:50:48.469Z,22.96
2018-08-10T09:54:27.596Z,22.16
2018-08-10T09:57:00.262Z,21.74
2018-08-10T09:59:30.297Z,21.38
2018-08-10T10:02:04.449Z,21.51
2018-08-10T10:04:35.598Z,21.50
2018-08-10T10:07:04.613Z,21.59
2018-08-10T10:09:33.653Z,21.82
2018-08-10T10:12:02.866Z,22.28
2018-08-10T10:14:31.827Z,22.63
2018-08-10T10:17:01.008Z,23.17
2018-08-10T10:19:29.843Z,23.43
2018-08-10T10:21:59.337Z,22.63
2018-08-10T10:24:28.637Z,22.81
2018-08-10T10:26:57.527Z,22.54
2018-08-10T10:29:26.433Z,22.58
2018-08-10T10:31:55.618Z,22.58
2018-08-10T10:34:25.752Z,22.69
2018-08-10T10:36:54.857Z,22.69
2018-08-10T10:39:24.499Z,22.81
2018-08-10T10:41:53.328Z,22.98
2018-08-10T10:44:22.909Z,23.27
2018-08-10T10:46:53.286Z,22.77
2018-08-10T10:49:22.027Z,22.67
2018-08-10T10:51:50.988Z,22.57
2018-08-10T10:54:20.027Z,22.56
2018-08-10T10:56:49.110Z,22.32
2018-08-10T10:59:17.829Z,21.78
2018-08-10T11:01:46.718Z,21.37
2018-08-10T11:04:16.211Z,21.22
2018-08-10T11:06:45.145Z,21.20
2018-08-10T11:09:14.419Z,21.46
2018-08-10T11:11:43.300Z,21.62
2018-08-10T11:14:12.194Z,21.66
2018-08-10T11:16:42.127Z,21.51
2018-08-10T11:19:12.406Z,21.73
2018-08-10T11:21:41.293Z,22.23
2018-08-10T11:24:10.284Z,22.55
2018-08-10T11:26:40.162Z,22.64
2018-08-10T11:29:09.010Z,22.54
2018-08-10T11:31:37.895Z,22.64
2018-08-10T11:34:07.569Z,22.89
2018-08-10T11:36:36.491Z,23.14
2018-08-10T11:39:09.373Z,23.32
2018-08-10T11:41:38.585Z,23.24
2018-08-10T11:44:09.512Z,23.38
2018-08-10T11:46:39.194Z,23.32
2018-08-10T11:49:08.045Z,23.10
2018-08-10T11:51:37.246Z,23.04
2018-08-10T11:54:06.274Z,23.49
2018-08-10T11:56:35.907Z,24.42
2018-08-10T11:59:05.198Z,24.95
2018-08-10T12:01:34.039Z,25.00
2018-08-10T12:04:03.274Z,25.19
2018-08-10T12:06:33.979Z,24.95
2018-08-10T12:09:02.938Z,24.93
2018-08-10T12:11:31.711Z,25.23
2018-08-10T12:14:00.715Z,25.04
2018-08-10T12:16:30.679Z,25.23
2018-08-10T12:18:59.534Z,25.67
2018-08-10T12:21:28.253Z,25.23
2018-08-10T12:23:57.237Z,25.10
2018-08-10T12:26:27.112Z,25.30
2018-08-10T12:28:56.059Z,25.99
2018-08-10T12:31:25.094Z,26.72
2018-08-10T12:33:54.048Z,26.33
2018-08-10T12:36:22.967Z,25.84
2018-08-10T12:38:52.249Z,25.96
2018-08-10T12:41:21.077Z,25.66
2018-08-10T12:43:50.024Z,25.37
2018-08-10T12:46:19.949Z,25.19
2018-08-10T12:48:48.856Z,24.91
2018-08-10T12:51:17.736Z,25.22
2018-08-10T12:53:46.672Z,26.24
2018-08-10T12:56:16.834Z,27.07
2018-08-10T12:58:46.064Z,26.72
2018-08-10T13:01:15.212Z,25.81
2018-08-10T13:03:44.096Z,25.64
2018-08-10T13:06:15.042Z,25.60
2018-08-10T13:08:44.213Z,25.00
2018-08-10T13:11:13.048Z,24.87
2018-08-10T13:13:41.915Z,25.09
2018-08-10T13:16:11.723Z,25.50
2018-08-10T13:18:40.686Z,25.14
2018-08-10T13:21:09.625Z,24.69
2018-08-10T13:23:38.459Z,25.66
2018-08-10T13:26:07.924Z,27.34
2018-08-10T13:28:36.796Z,27.09
2018-08-10T13:31:05.712Z,26.34
2018-08-10T13:33:34.577Z,26.40
2018-08-10T13:36:04.511Z,25.63
2018-08-10T13:38:33.469Z,26.87
2018-08-10T13:41:02.258Z,30.73
2018-08-10T13:43:31.204Z,32.82
2018-08-10T13:46:00.130Z,32.09
2018-08-10T13:48:28.985Z,29.97
2018-08-10T13:50:57.939Z,28.45
2018-08-10T13:53:26.862Z,30.52
2018-08-10T13:55:55.607Z,31.27
2018-08-10T13:58:24.772Z,29.19
2018-08-10T14:00:53.945Z,28.11
2018-08-10T14:03:22.925Z,29.26
2018-08-10T14:05:51.887Z,29.12
2018-08-10T14:08:20.926Z,28.16
2018-08-10T14:10:49.860Z,27.17
2018-08-10T14:13:18.725Z,25.93
2018-08-10T14:15:47.710Z,27.13
2018-08-10T14:18:16.658Z,29.38
2018-08-10T14:20:45.736Z,28.15
2018-08-10T14:23:14.837Z,26.88
2018-08-10T14:25:43.937Z,28.27
2018-08-10T14:28:20.899Z,30.87
2018-08-10T14:30:50.322Z,28.59
2018-08-10T14:33:19.560Z,27.32
2018-08-10T14:35:49.096Z,29.38
2018-08-10T14:38:22.790Z,30.89
2018-08-10T14:40:51.725Z,31.74
2018-08-10T14:43:20.949Z,33.02
2018-08-10T14:45:51.213Z,34.30
2018-08-10T14:48:22.272Z,31.53
2018-08-10T14:50:51.138Z,29.52
2018-08-10T14:53:20.065Z,29.85
2018-08-10T14:55:49.373Z,31.89
2018-08-10T14:58:19.589Z,34.72
2018-08-10T15:00:48.516Z,36.22
2018-08-10T15:03:17.438Z,38.33
2018-08-10T15:05:46.372Z,38.75
2018-08-10T15:08:15.280Z,36.82
2018-08-10T15:10:44.284Z,34.45
2018-08-10T15:13:13.148Z,31.72
2018-08-10T15:15:42.107Z,30.27
2018-08-10T15:18:13.044Z,31.88
2018-08-10T15:20:41.942Z,31.40
2018-08-10T15:23:10.872Z,30.22
2018-08-10T15:25:39.742Z,28.86
2018-08-10T15:28:08.629Z,28.46
2018-08-10T15:30:37.533Z,28.27
2018-08-10T15:33:10.060Z,28.08
2018-08-10T15:35:38.967Z,27.58
2018-08-10T15:38:07.946Z,27.39
2018-08-10T15:40:36.757Z,26.99
2018-08-10T15:43:05.765Z,26.44
2018-08-10T15:45:34.889Z,27.25
2018-08-10T15:48:04.829Z,29.58
2018-08-10T15:50:33.829Z,30.55
2018-08-10T15:53:06.354Z,32.60
2018-08-10T15:55:35.254Z,33.37
2018-08-10T15:58:05.426Z,31.13
2018-08-10T16:00:34.238Z,28.80
2018-08-10T16:03:03.411Z,28.06
2018-08-10T16:05:36.162Z,29.95
2018-08-10T16:08:07.473Z,32.50
2018-08-10T16:10:36.218Z,33.93
2018-08-10T16:13:08.458Z,33.14
2018-08-10T16:15:38.315Z,33.03
2018-08-10T16:18:09.457Z,33.88
2018-08-10T16:20:38.475Z,32.15
2018-08-10T16:23:07.757Z,32.28
2018-08-10T16:25:36.648Z,30.09
2018-08-10T16:28:08.261Z,30.18
2018-08-10T16:30:40.146Z,31.82
2018-08-10T16:33:09.393Z,30.45
2018-08-10T16:35:38.309Z,28.18
2018-08-10T16:38:07.409Z,26.75
2018-08-10T16:40:36.262Z,27.40
2018-08-10T16:43:05.171Z,29.78
2018-08-10T16:45:34.055Z,31.71
2018-08-10T16:48:03.998Z,30.93
2018-08-10T16:50:33.178Z,29.17
2018-08-10T16:53:02.229Z,27.37
2018-08-10T16:55:31.249Z,25.81
2018-08-10T16:58:00.106Z,24.99
2018-08-10T17:00:28.945Z,24.56
2018-08-10T17:02:57.958Z,24.34
2018-08-10T17:05:26.903Z,24.12
2018-08-10T17:07:57.383Z,24.08
2018-08-10T17:10:26.149Z,24.01
2018-08-10T17:12:55.031Z,23.82
2018-08-10T17:15:23.906Z,23.69
2018-08-10T17:17:54.873Z,23.57
2018-08-10T17:20:23.623Z,23.99
2018-08-10T17:22:52.531Z,24.21
2018-08-10T17:25:21.659Z,24.60
2018-08-10T17:27:51.467Z,25.47
2018-08-10T17:30:20.803Z,26.56
2018-08-10T17:32:49.856Z,27.42
2018-08-10T17:35:18.981Z,28.05
2018-08-10T17:37:48.969Z,28.13
2018-08-10T17:40:17.712Z,28.17
2018-08-10T17:42:46.869Z,28.02
2018-08-10T17:45:17.059Z,27.75
2018-08-10T17:47:45.945Z,27.50
2018-08-10T17:50:17.545Z,27.53
2018-08-10T17:52:48.325Z,26.83
2018-08-10T17:55:17.745Z,26.41
2018-08-10T17:57:46.577Z,26.05
2018-08-10T18:00:17.853Z,25.33
2018-08-10T18:02:47.166Z,24.35
2018-08-10T18:05:17.091Z,23.89
2018-08-10T18:07:46.181Z,23.73
2018-08-10T18:10:15.661Z,23.60
2018-08-10T18:12:45.009Z,23.46
2018-08-10T18:15:17.119Z,23.25
2018-08-10T18:17:46.365Z,23.09
2018-08-10T18:20:17.325Z,22.83
2018-08-10T18:22:47.615Z,22.44
2018-08-10T18:25:17.627Z,22.13
2018-08-10T18:27:46.841Z,21.82
2018-08-10T18:30:17.871Z,21.51
2018-08-10T18:32:47.201Z,21.23
2018-08-10T18:35:16.221Z,20.90
2018-08-10T18:37:45.677Z,20.62
2018-08-10T18:40:15.592Z,20.34
2018-08-10T18:42:45.617Z,20.06
2018-08-10T18:45:16.169Z,19.82
2018-08-10T18:47:45.440Z,19.66
2018-08-10T18:50:15.660Z,19.50
2018-08-10T18:52:44.685Z,19.31
2018-08-10T18:55:15.397Z,19.16
2018-08-10T18:57:44.361Z,18.98
2018-08-10T19:00:15.386Z,18.73
2018-08-10T19:02:44.532Z,18.63
2018-08-10T19:05:15.037Z,18.49
2018-08-10T19:07:44.631Z,18.23
2018-08-10T19:10:15.604Z,17.86
2018-08-10T19:12:44.580Z,17.52
2018-08-10T19:15:13.849Z,17.33
2018-08-10T19:17:43.084Z,17.08
2018-08-10T19:20:12.919Z,16.85
2018-08-10T19:22:41.728Z,16.57
2018-08-10T19:25:12.041Z,16.34
2018-08-10T19:27:40.925Z,16.14
2018-08-10T19:30:18.715Z,15.97
2018-08-10T19:32:48.348Z,15.74
2018-08-10T19:35:17.771Z,15.57
2018-08-10T19:37:46.612Z,15.40
2018-08-10T19:40:16.738Z,15.27
2018-08-10T19:42:45.787Z,15.19
2018-08-10T19:45:15.681Z,15.16
2018-08-10T19:47:44.674Z,15.17
2018-08-10T19:50:14.996Z,15.16
2018-08-10T19:52:44.218Z,15.27
2018-08-10T19:55:14.442Z,15.39
2018-08-10T19:57:43.233Z,15.43
2018-08-10T20:00:14.053Z,15.48
2018-08-10T20:02:43.155Z,15.48
2018-08-10T20:05:12.058Z,15.53
2018-08-10T20:07:40.783Z,15.59
2018-08-10T20:10:12.945Z,15.61
2018-08-10T20:12:41.946Z,15.63
2018-08-10T20:15:13.592Z,15.72
2018-08-10T20:17:42.836Z,15.78
2018-08-10T20:20:14.623Z,15.80
2018-08-10T20:22:43.885Z,15.78
2018-08-10T20:25:13.396Z,15.78
2018-08-10T20:27:42.297Z,15.90
2018-08-10T20:30:12.978Z,16.12
2018-08-10T20:32:41.849Z,16.35
2018-08-10T20:35:12.585Z,16.55
2018-08-10T20:37:42.144Z,16.72
2018-08-10T20:40:12.790Z,16.85
2018-08-10T20:42:41.722Z,16.92
2018-08-10T20:45:10.638Z,16.91
2018-08-10T20:47:39.381Z,16.92
2018-08-10T20:50:14.573Z,16.86
2018-08-10T20:52:43.730Z,16.76
2018-08-10T20:55:12.750Z,16.69
2018-08-10T20:57:41.585Z,16.71
2018-08-10T21:00:11.256Z,16.75
2018-08-10T21:02:41.457Z,16.72
2018-08-10T21:05:10.360Z,16.79
2018-08-10T21:07:39.269Z,16.86
2018-08-10T21:10:11.017Z,16.94
2018-08-10T21:12:40.433Z,17.02
2018-08-10T21:15:10.659Z,17.22
2018-08-10T21:17:39.945Z,17.35
2018-08-10T21:20:10.484Z,17.48
2018-08-10T21:22:39.322Z,17.57
2018-08-10T21:25:09.337Z,17.70
2018-08-10T21:27:38.627Z,17.82
2018-08-10T21:30:11.020Z,17.97
2018-08-10T21:32:39.902Z,18.08
2018-08-10T21:35:08.910Z,18.18
2018-08-10T21:37:37.766Z,18.30
2018-08-10T21:40:08.765Z,18.38
2018-08-10T21:42:37.954Z,18.45
2018-08-10T21:45:07.193Z,18.47
2018-08-10T21:47:36.353Z,18.49
2018-08-10T21:50:07.026Z,18.51
2018-08-10T21:52:36.129Z,18.53
2018-08-10T21:55:05.088Z,18.55
2018-08-10T21:57:34.164Z,18.62
2018-08-10T22:00:03.145Z,18.66
2018-08-10T22:02:32.065Z,18.69
2018-08-10T22:05:01.230Z,18.79
2018-08-10T22:07:29.944Z,18.79
2018-08-10T22:09:58.816Z,18.82
2018-08-10T22:12:27.864Z,18.84
2018-08-10T22:15:01.763Z,18.81
2018-08-10T22:17:35.736Z,18.77
2018-08-10T22:20:05.042Z,18.78
2018-08-10T22:22:34.190Z,18.79
2018-08-10T22:25:03.209Z,18.73
2018-08-10T22:27:32.012Z,18.71
2018-08-10T22:30:00.893Z,18.68
2018-08-10T22:32:29.745Z,18.69
2018-08-10T22:34:58.517Z,18.66
2018-08-10T22:37:27.758Z,18.58
2018-08-10T22:39:56.587Z,18.57
2018-08-10T22:42:25.517Z,18.53
2018-08-10T22:44:54.583Z,18.52
2018-08-10T22:47:23.484Z,18.51
2018-08-10T22:49:52.378Z,18.49
2018-08-10T22:52:21.496Z,18.55
2018-08-10T22:54:50.415Z,18.51
2018-08-10T22:57:19.337Z,18.50
2018-08-10T22:59:48.153Z,18.49
2018-08-10T23:02:16.900Z,18.44
2018-08-10T23:04:45.937Z,18.38
2018-08-10T23:07:14.796Z,18.36
2018-08-10T23:09:43.590Z,18.30
2018-08-10T23:12:12.394Z,18.28
2018-08-10T23:14:41.219Z,18.23
2018-08-10T23:17:10.092Z,18.22
2018-08-10T23:19:39.118Z,18.17
2018-08-10T23:22:08.298Z,18.12
2018-08-10T23:24:37.126Z,18.12
2018-08-10T23:27:05.990Z,18.09
2018-08-10T23:29:34.802Z,18.09
2018-08-10T23:32:03.802Z,18.07
2018-08-10T23:34:32.921Z,17.99
2018-08-10T23:37:01.606Z,17.92
2018-08-10T23:39:30.399Z,18.03
2018-08-10T23:41:59.280Z,18.09
2018-08-10T23:44:28.157Z,18.13
2018-08-10T23:46:57.329Z,18.21
2018-08-10T23:49:26.405Z,18.24
2018-08-10T23:51:55.209Z,18.22
2018-08-10T23:54:24.257Z,18.20
2018-08-10T23:56:53.161Z,18.12
2018-08-10T23:59:22.091Z,17.96
